Time;durP1;ratioP1;P1;durP2;ratioP2;P2;SDS_P1;SDS_P2;PMS_P1;PMS_P2;Temp;Humidity;BMP_temperature;BMP_pressure;BME280_temperature;BME280_humidity;BME280_pressure;Samples;Min_cycle;Max_cycle;Signal;HPM_P1;HPM_P2
2023/07/06 00:00:33;;;;;;;6.63;3.95;;;19.90;99.90;;;;;;4848770;29;20109;-77
2023/07/06 00:03:03;;;;;;;6.63;3.55;;;20.00;99.90;;;;;;4858730;29;20053;-76
2023/07/06 00:05:31;;;;;;;5.70;3.38;;;20.20;99.90;;;;;;4863003;29;20048;-74
2023/07/06 00:08:00;;;;;;;5.63;3.33;;;20.30;99.90;;;;;;4851485;29;20060;-74
2023/07/06 00:10:30;;;;;;;5.85;3.33;;;20.40;99.90;;;;;;4877038;29;20096;-74
2023/07/06 00:13:01;;;;;;;4.75;2.72;;;20.50;99.90;;;;;;4867784;29;20450;-77
2023/07/06 00:15:28;;;;;;;4.97;3.00;;;20.40;99.90;;;;;;4852436;29;20125;-73
2023/07/06 00:17:58;;;;;;;5.05;2.90;;;20.00;99.90;;;;;;4868170;29;20068;-75
2023/07/06 00:20:27;;;;;;;6.10;3.00;;;19.90;99.90;;;;;;4863894;29;20052;-74
2023/07/06 00:22:55;;;;;;;4.28;2.50;;;19.80;99.90;;;;;;4844979;29;20041;-73
2023/07/06 00:25:27;;;;;;;5.82;2.90;;;19.70;99.90;;;;;;4860835;29;20109;-74
2023/07/06 00:27:57;;;;;;;5.93;2.92;;;19.80;99.90;;;;;;4880726;29;20055;-76
2023/07/06 00:33:18;;;;;;;8.43;3.17;;;19.60;99.90;;;;;;4863428;29;20394;-80
2023/07/06 00:35:46;;;;;;;5.53;3.05;;;19.70;99.90;;;;;;4867673;29;20059;-75
2023/07/06 00:38:21;;;;;;;5.22;3.15;;;19.70;99.90;;;;;;4851641;29;20048;-78
2023/07/06 00:40:56;;;;;;;7.15;3.25;;;19.50;99.90;;;;;;4884178;29;20053;-79
2023/07/06 00:46:39;;;;;;;5.80;3.10;;;20.00;99.90;;;;;;4909872;23;21244;-74
2023/07/06 00:49:17;;;;;;;4.75;3.00;;;20.30;99.90;;;;;;4884564;29;20043;-76
2023/07/06 00:51:52;;;;;;;5.18;3.22;;;20.50;99.90;;;;;;4885399;29;20049;-79
2023/07/06 00:54:20;;;;;;;5.45;3.42;;;20.40;99.90;;;;;;4884129;29;20134;-74
2023/07/06 00:56:52;;;;;;;7.05;3.65;;;20.50;99.90;;;;;;4913630;29;20552;-76
2023/07/06 00:59:21;;;;;;;8.85;3.10;;;20.10;99.90;;;;;;4899259;29;20393;-81
2023/07/06 01:01:49;;;;;;;6.13;3.67;;;20.00;99.90;;;;;;4880855;29;20055;-75
2023/07/06 01:04:18;;;;;;;6.82;3.50;;;19.80;99.90;;;;;;4881434;29;20758;-72
2023/07/06 01:06:50;;;;;;;5.77;3.07;;;20.00;99.90;;;;;;4911839;29;20052;-80
2023/07/06 01:09:18;;;;;;;4.93;3.10;;;20.10;99.90;;;;;;4880615;29;20075;-81
2023/07/06 01:11:46;;;;;;;7.38;2.78;;;19.70;99.90;;;;;;4908816;29;20114;-80
2023/07/06 01:14:14;;;;;;;5.20;2.90;;;19.40;99.90;;;;;;4905586;29;20044;-76
2023/07/06 01:17:14;;;;;;;5.18;2.95;;;19.30;99.90;;;;;;4909017;29;20070;-78
2023/07/06 01:20:32;;;;;;;9.82;3.25;;;19.20;99.90;;;;;;4882177;29;20111;-79
2023/07/06 01:23:42;;;;;;;5.35;2.53;;;19.40;99.90;;;;;;4879157;29;20048;-79
2023/07/06 01:26:13;;;;;;;5.75;3.28;;;19.20;99.90;;;;;;4853758;29;20045;-74
2023/07/06 01:29:02;;;;;;;6.35;2.90;;;18.90;99.90;;;;;;4881046;29;20090;-81
2023/07/06 01:31:36;;;;;;;4.55;2.70;;;18.90;99.90;;;;;;4898101;29;20048;-73
2023/07/06 01:34:14;;;;;;;5.95;2.88;;;18.90;99.90;;;;;;4863244;29;20057;-75
2023/07/06 01:37:00;;;;;;;4.35;2.67;;;19.00;99.90;;;;;;4859841;29;20123;-75
2023/07/06 01:39:30;;;;;;;5.03;3.08;;;19.10;99.90;;;;;;4897935;29;20052;-77
2023/07/06 01:42:12;;;;;;;4.18;2.72;;;19.20;99.90;;;;;;4866879;29;20037;-78
2023/07/06 01:44:57;;;;;;;6.55;2.70;;;19.20;99.90;;;;;;4890185;23;20055;-78
2023/07/06 01:47:27;;;;;;;5.45;3.15;;;19.20;99.90;;;;;;4889794;29;20044;-72
2023/07/06 01:49:55;;;;;;;5.18;3.22;;;19.20;99.90;;;;;;4884818;29;20669;-73
2023/07/06 01:52:49;;;;;;;4.13;2.70;;;19.20;99.90;;;;;;4890743;29;20500;-76
2023/07/06 01:55:30;;;;;;;5.20;3.10;;;19.50;99.90;;;;;;4897127;29;20583;-74
2023/07/06 01:58:07;;;;;;;5.70;3.58;;;19.50;99.90;;;;;;4898132;29;20040;-75
2023/07/06 02:00:47;;;;;;;5.10;3.20;;;19.60;99.90;;;;;;4865982;23;20053;-79
2023/07/06 02:03:29;;;;;;;8.60;3.15;;;19.60;99.90;;;;;;4880146;23;20051;-76
2023/07/06 02:05:58;;;;;;;5.47;3.00;;;19.40;99.90;;;;;;4863036;29;20052;-76
2023/07/06 02:08:32;;;;;;;6.30;3.15;;;19.40;99.90;;;;;;4849848;29;20052;-75
2023/07/06 02:11:01;;;;;;;7.75;3.40;;;19.50;99.90;;;;;;4897371;29;20044;-77
2023/07/06 02:13:28;;;;;;;6.47;3.28;;;19.50;99.90;;;;;;4862714;29;20061;-78
2023/07/06 02:16:09;;;;;;;7.18;3.50;;;19.40;99.90;;;;;;4855397;29;20076;-76
2023/07/06 02:18:37;;;;;;;5.95;3.30;;;19.40;99.90;;;;;;4896303;29;20076;-75
2023/07/06 02:21:07;;;;;;;6.80;3.00;;;19.40;99.90;;;;;;4879755;29;20076;-75
2023/07/06 02:23:39;;;;;;;7.03;3.97;;;19.60;99.90;;;;;;4867577;29;20045;-79
2023/07/06 02:26:06;;;;;;;9.68;5.35;;;19.70;99.90;;;;;;4873230;29;20375;-75
2023/07/06 02:28:34;;;;;;;5.50;3.38;;;19.50;99.90;;;;;;4858630;29;20403;-78
2023/07/06 02:31:05;;;;;;;7.45;3.42;;;19.70;99.90;;;;;;4877935;29;20033;-74
2023/07/06 02:33:38;;;;;;;6.72;3.40;;;19.80;99.90;;;;;;4861400;29;20060;-74
2023/07/06 02:36:07;;;;;;;;;;;19.80;99.90;;;;;;4846186;29;20434;-77
2023/07/06 02:38:36;;;;;;;4.80;3.08;;;19.90;99.90;;;;;;4846013;29;20313;-74
2023/07/06 02:41:04;;;;;;;7.95;4.30;;;19.90;99.90;;;;;;4877904;29;20052;-75
2023/07/06 02:43:32;;;;;;;6.38;3.22;;;19.60;99.90;;;;;;4876408;29;20041;-74
2023/07/06 02:46:01;;;;;;;5.80;3.47;;;19.30;99.90;;;;;;4877103;29;20042;-74
2023/07/06 02:48:28;;;;;;;8.43;3.40;;;19.10;99.90;;;;;;4877039;29;20049;-73
2023/07/06 02:50:59;;;;;;;4.90;3.10;;;19.10;99.90;;;;;;4877939;29;20672;-78
2023/07/06 02:53:27;;;;;;;5.60;3.00;;;19.40;99.90;;;;;;4848608;29;20451;-77
2023/07/06 02:55:58;;;;;;;6.10;3.20;;;19.60;99.90;;;;;;4877407;29;20402;-77
2023/07/06 02:58:28;;;;;;;5.43;3.25;;;19.60;99.90;;;;;;4850227;29;20053;-75
2023/07/06 03:01:58;;;;;;;;;;;;;;;;;;;;;
2023/07/06 03:05:13;;;;;;;6.38;3.60;;;19.60;99.90;;;;;;4726313;30;20049;-76
2023/07/06 03:07:41;;;;;;;6.10;3.50;;;19.50;99.90;;;;;;4790814;29;20037;-77
2023/07/06 03:10:12;;;;;;;6.43;3.30;;;19.50;99.90;;;;;;4846200;29;20045;-77
2023/07/06 03:12:39;;;;;;;6.43;3.22;;;19.50;99.90;;;;;;4861926;29;20049;-76
2023/07/06 03:15:14;;;;;;;7.03;3.13;;;19.50;99.90;;;;;;4830341;29;20049;-78
2023/07/06 03:17:45;;;;;;;6.07;3.50;;;19.50;99.90;;;;;;4830416;29;20077;-75
2023/07/06 03:20:19;;;;;;;8.95;4.03;;;19.30;99.90;;;;;;4830770;29;20063;-78
2023/07/06 03:22:48;;;;;;;7.00;3.83;;;19.40;99.90;;;;;;4830919;29;20053;-78
2023/07/06 03:25:16;;;;;;;6.95;3.45;;;19.40;99.90;;;;;;4861578;29;21491;-76
2023/07/06 03:27:46;;;;;;;7.20;3.63;;;19.50;99.90;;;;;;4861363;29;20080;-76
2023/07/06 03:30:15;;;;;;;;;;;19.50;99.90;;;;;;4846157;29;20448;-78
2023/07/06 03:32:43;;;;;;;6.65;3.20;;;19.60;99.90;;;;;;4853312;29;19924;-73
2023/07/06 03:35:12;;;;;;;5.15;3.45;;;19.60;99.90;;;;;;4858755;24;20094;-77
2023/07/06 03:37:48;;;;;;;5.63;3.10;;;19.60;99.90;;;;;;4858629;29;20046;-76
2023/07/06 03:40:20;;;;;;;4.97;2.70;;;19.60;99.90;;;;;;4873670;29;20141;-76
2023/07/06 03:42:48;;;;;;;4.00;2.42;;;19.60;99.90;;;;;;4861297;29;20382;-76
2023/07/06 03:45:18;;;;;;;4.50;2.80;;;19.70;99.90;;;;;;4875815;29;20104;-75
2023/07/06 03:47:46;;;;;;;5.35;3.13;;;19.70;99.90;;;;;;4861184;29;20255;-74
2023/07/06 03:50:16;;;;;;;11.25;3.25;;;19.40;99.90;;;;;;4861781;29;20050;-75
2023/07/06 03:52:44;;;;;;;4.60;2.83;;;19.50;99.90;;;;;;4861306;29;20437;-76
2023/07/06 03:55:17;;;;;;;7.50;3.28;;;19.60;99.90;;;;;;4858275;29;20329;-74
2023/07/06 03:57:45;;;;;;;6.93;3.13;;;19.70;99.90;;;;;;4859671;29;20061;-75
2023/07/06 04:00:30;;;;;;;7.15;3.55;;;19.80;99.90;;;;;;4857631;29;20098;-73
2023/07/06 04:03:08;;;;;;;5.25;3.22;;;19.70;99.90;;;;;;4869330;29;20498;-74
2023/07/06 04:05:44;;;;;;;5.97;2.90;;;19.80;99.90;;;;;;4870196;29;20065;-74
2023/07/06 04:08:16;;;;;;;4.70;2.65;;;20.00;99.90;;;;;;4861620;29;20042;-74
2023/07/06 04:10:45;;;;;;;7.90;3.22;;;19.90;99.90;;;;;;4860080;29;20097;-75
2023/07/06 04:13:14;;;;;;;5.03;2.92;;;20.00;99.90;;;;;;4868967;29;20149;-81
2023/07/06 04:15:52;;;;;;;5.05;2.80;;;20.00;99.90;;;;;;4858675;29;20049;-72
2023/07/06 04:18:26;;;;;;;8.20;3.05;;;20.10;99.90;;;;;;4859802;29;20494;-73
2023/07/06 04:20:54;;;;;;;6.00;2.97;;;20.20;99.90;;;;;;4876762;29;20060;-81
2023/07/06 04:23:22;;;;;;;5.07;3.08;;;20.20;99.90;;;;;;4861428;29;20128;-74
2023/07/06 04:25:49;;;;;;;6.93;3.40;;;20.30;99.90;;;;;;4876805;29;20057;-79
2023/07/06 04:28:17;;;;;;;5.75;3.08;;;20.30;99.90;;;;;;4866012;29;20046;-74
2023/07/06 04:30:50;;;;;;;5.80;3.20;;;20.40;99.90;;;;;;4860384;29;20061;-79
2023/07/06 04:33:19;;;;;;;5.68;2.90;;;20.40;99.90;;;;;;4873172;29;20521;-75
2023/07/06 04:35:51;;;;;;;6.45;3.00;;;20.40;99.90;;;;;;4856471;29;20388;-74
2023/07/06 04:38:21;;;;;;;5.53;3.13;;;20.40;99.90;;;;;;4861144;29;20407;-73
2023/07/06 04:40:51;;;;;;;7.05;3.08;;;20.30;99.90;;;;;;4860957;29;20053;-78
2023/07/06 04:43:19;;;;;;;7.60;3.20;;;20.20;99.90;;;;;;4839760;29;20505;-79
2023/07/06 04:45:48;;;;;;;5.03;2.92;;;20.10;99.90;;;;;;4861671;29;20467;-75
2023/07/06 04:48:17;;;;;;;6.32;3.55;;;20.30;99.90;;;;;;4845701;29;20137;-78
2023/07/06 04:51:05;;;;;;;4.43;2.58;;;20.40;99.90;;;;;;4835188;29;20037;-73
2023/07/06 04:53:32;;;;;;;12.98;6.45;;;20.60;99.90;;;;;;4846619;29;20073;-75
2023/07/06 04:56:00;;;;;;;173.55;107.10;;;20.70;99.90;;;;;;4851406;29;20105;-75
2023/07/06 04:58:28;;;;;;;70.97;48.53;;;20.80;99.90;;;;;;4847125;29;20056;-72
2023/07/06 05:01:06;;;;;;;13.70;10.63;;;20.90;99.90;;;;;;4847119;29;20117;-73
2023/07/06 05:03:44;;;;;;;121.80;80.15;;;20.90;99.90;;;;;;4875131;29;20410;-80
2023/07/06 05:06:19;;;;;;;130.35;88.50;;;20.90;99.90;;;;;;4857166;29;20393;-74
2023/07/06 05:08:49;;;;;;;28.27;20.25;;;21.00;99.90;;;;;;4849981;29;20096;-74
2023/07/06 05:11:17;;;;;;;20.65;12.90;;;21.00;99.90;;;;;;4864484;29;20044;-76
2023/07/06 05:13:46;;;;;;;12.55;8.82;;;21.00;99.90;;;;;;4863995;29;20074;-80
2023/07/06 05:16:24;;;;;;;13.88;8.88;;;21.00;99.90;;;;;;4865517;29;20046;-75
2023/07/06 05:18:52;;;;;;;13.05;6.57;;;20.90;99.90;;;;;;4862987;29;20045;-77
2023/07/06 05:21:20;;;;;;;7.90;5.13;;;20.90;99.90;;;;;;4862488;29;20623;-82
2023/07/06 05:23:50;;;;;;;8.55;5.63;;;20.90;99.90;;;;;;4864241;29;20076;-73
2023/07/06 05:26:19;;;;;;;8.38;5.70;;;21.10;99.90;;;;;;4850920;29;20049;-72
2023/07/06 05:28:50;;;;;;;8.55;5.30;;;21.20;99.90;;;;;;4845185;29;20050;-75
2023/07/06 05:31:30;;;;;;;9.52;5.78;;;21.30;99.90;;;;;;4866725;29;20509;-76
2023/07/06 05:33:57;;;;;;;7.10;4.35;;;21.40;99.90;;;;;;4848691;29;20085;-83
2023/07/06 05:36:26;;;;;;;4.75;2.83;;;21.50;99.90;;;;;;4865679;29;20054;-72
2023/07/06 05:39:07;;;;;;;6.18;3.80;;;21.30;99.90;;;;;;4874059;29;20048;-75
2023/07/06 05:41:37;;;;;;;7.55;3.38;;;21.30;99.90;;;;;;4848087;29;20049;-84
2023/07/06 05:44:31;;;;;;;8.13;2.90;;;21.30;99.90;;;;;;4858178;23;20098;-79
2023/07/06 05:46:59;;;;;;;6.57;2.95;;;21.10;99.90;;;;;;4878334;29;20284;-79
2023/07/06 05:49:30;;;;;;;26.63;17.33;;;21.00;99.90;;;;;;4840754;29;20140;-76
2023/07/06 05:51:57;;;;;;;85.50;54.10;;;21.30;99.90;;;;;;4836994;29;20538;-77
2023/07/06 05:54:25;;;;;;;20.23;15.57;;;21.30;99.90;;;;;;4848545;29;20151;-79
2023/07/06 05:56:55;;;;;;;9.63;5.22;;;21.30;99.90;;;;;;4872234;29;20226;-75
2023/07/06 05:59:24;;;;;;;10.55;4.65;;;21.40;99.90;;;;;;4872651;29;20380;-79
2023/07/06 06:01:56;;;;;;;10.93;5.57;;;21.50;99.90;;;;;;4858998;29;20124;-76
2023/07/06 06:04:25;;;;;;;10.40;5.32;;;21.50;99.90;;;;;;4850686;29;20367;-80
2023/07/06 06:07:01;;;;;;;10.20;5.13;;;21.70;99.90;;;;;;4866060;29;20081;-79
2023/07/06 06:09:28;;;;;;;9.73;5.60;;;21.80;99.90;;;;;;4869468;29;20057;-80
2023/07/06 06:11:56;;;;;;;6.72;3.97;;;21.90;99.90;;;;;;4869338;29;20702;-83
2023/07/06 06:14:31;;;;;;;8.27;3.45;;;21.80;99.90;;;;;;4841376;29;20045;-79
2023/07/06 06:16:59;;;;;;;6.88;3.83;;;21.80;99.90;;;;;;4882508;29;20041;-79
2023/07/06 06:19:27;;;;;;;6.78;3.08;;;21.90;99.90;;;;;;4880727;29;20132;-80
2023/07/06 06:21:59;;;;;;;7.32;3.42;;;21.90;99.90;;;;;;4878741;29;20125;-76
2023/07/06 06:24:27;;;;;;;6.15;3.15;;;21.70;99.90;;;;;;4884393;29;20056;-76
2023/07/06 06:27:02;;;;;;;6.32;2.90;;;21.70;99.90;;;;;;4876450;29;20108;-82
2023/07/06 06:29:34;;;;;;;5.65;2.65;;;21.80;99.90;;;;;;4869304;29;20054;-80
2023/07/06 06:32:05;;;;;;;8.27;2.80;;;22.00;99.90;;;;;;4836844;29;20057;-84
2023/07/06 06:34:42;;;;;;;5.75;2.95;;;22.00;99.90;;;;;;4846014;29;20057;-85
2023/07/06 06:37:09;;;;;;;5.22;3.25;;;22.10;99.90;;;;;;4864410;29;20060;-79
2023/07/06 06:39:51;;;;;;;5.10;2.80;;;22.30;99.90;;;;;;4834231;29;20058;-81
2023/07/06 06:42:21;;;;;;;5.32;2.70;;;22.10;99.90;;;;;;4853934;29;20479;-80
2023/07/06 06:44:49;;;;;;;5.07;2.60;;;22.00;99.90;;;;;;4899891;23;20085;-82
2023/07/06 06:47:16;;;;;;;5.20;3.10;;;22.10;99.90;;;;;;4848443;29;20030;-82
2023/07/06 06:49:50;;;;;;;6.95;2.92;;;22.10;99.90;;;;;;4859442;29;20046;-84
2023/07/06 06:52:21;;;;;;;6.07;3.00;;;22.20;99.90;;;;;;4826172;29;20053;-82
2023/07/06 06:55:00;;;;;;;5.45;3.22;;;22.40;99.90;;;;;;4818134;29;20089;-84
2023/07/06 06:57:31;;;;;;;6.18;3.00;;;22.50;99.90;;;;;;4856122;29;20049;-77
2023/07/06 06:59:59;;;;;;;4.75;2.88;;;22.50;99.90;;;;;;4858513;29;20483;-79
2023/07/06 07:02:28;;;;;;;6.57;2.80;;;22.60;99.90;;;;;;4827487;29;20057;-80
2023/07/06 07:05:00;;;;;;;4.63;2.47;;;22.60;99.90;;;;;;4828340;29;20113;-77
2023/07/06 07:07:39;;;;;;;5.65;2.65;;;22.60;99.90;;;;;;4832233;29;20054;-75
2023/07/06 07:10:13;;;;;;;5.85;3.42;;;22.60;99.90;;;;;;4820336;29;20460;-78
2023/07/06 07:12:53;;;;;;;6.50;2.90;;;22.60;99.90;;;;;;4881637;23;20116;-77
2023/07/06 07:15:33;;;;;;;5.85;2.88;;;22.60;99.90;;;;;;4866630;29;20084;-74
2023/07/06 07:18:03;;;;;;;6.93;2.72;;;22.80;99.90;;;;;;4865951;29;20060;-77
2023/07/06 07:20:30;;;;;;;7.53;3.10;;;22.80;99.90;;;;;;4860792;29;20089;-76
2023/07/06 07:23:03;;;;;;;6.68;2.92;;;22.90;99.90;;;;;;4875153;29;20057;-83
2023/07/06 07:25:41;;;;;;;6.82;2.95;;;23.10;99.90;;;;;;4853154;29;20058;-76
2023/07/06 07:28:08;;;;;;;6.53;2.95;;;23.30;99.90;;;;;;4849418;29;20125;-82
2023/07/06 07:30:46;;;;;;;5.25;2.70;;;23.30;99.90;;;;;;4843038;29;20121;-78
2023/07/06 07:33:14;;;;;;;8.68;3.03;;;23.30;99.90;;;;;;4857982;29;20715;-79
2023/07/06 07:35:43;;;;;;;7.00;3.40;;;23.30;99.90;;;;;;4848897;29;20102;-78
2023/07/06 07:38:11;;;;;;;9.57;4.47;;;23.40;99.90;;;;;;4863920;29;20050;-74
2023/07/06 07:40:40;;;;;;;6.45;3.00;;;23.50;99.90;;;;;;4852125;29;20050;-82
2023/07/06 07:43:08;;;;;;;4.57;2.70;;;23.60;99.90;;;;;;4851061;29;20073;-75
2023/07/06 07:45:38;;;;;;;7.75;3.05;;;23.70;99.90;;;;;;4865455;29;20106;-77
2023/07/06 07:48:05;;;;;;;7.47;3.47;;;23.70;99.90;;;;;;4907103;23;20378;-80
2023/07/06 07:50:50;;;;;;;4.97;2.83;;;23.70;99.90;;;;;;4877755;29;20049;-76
2023/07/06 07:53:18;;;;;;;6.43;3.20;;;23.70;99.90;;;;;;4902631;29;20440;-76
2023/07/06 07:55:48;;;;;;;6.45;3.25;;;23.70;99.90;;;;;;4905683;29;20104;-84
2023/07/06 07:58:26;;;;;;;6.68;4.05;;;23.70;99.90;;;;;;4861858;29;20048;-80
2023/07/06 08:00:57;;;;;;;7.32;3.13;;;23.70;99.90;;;;;;4905232;29;20116;-80
2023/07/06 08:03:29;;;;;;;7.38;3.40;;;23.80;99.90;;;;;;4887988;29;20048;-81
2023/07/06 08:06:06;;;;;;;7.30;3.20;;;23.80;99.90;;;;;;4889083;29;20049;-74
2023/07/06 08:08:36;;;;;;;4.88;2.88;;;24.00;99.90;;;;;;4875072;29;20048;-76
2023/07/06 08:11:11;;;;;;;5.78;3.55;;;24.10;99.90;;;;;;4892584;29;20041;-76
2023/07/06 08:13:40;;;;;;;7.07;2.88;;;24.00;99.90;;;;;;4902439;29;20040;-75
2023/07/06 08:16:15;;;;;;;6.35;3.65;;;24.00;99.90;;;;;;4906269;29;20056;-79
2023/07/06 08:18:54;;;;;;;13.68;4.25;;;24.20;99.90;;;;;;4879013;29;20049;-77
2023/07/06 08:21:42;;;;;;;9.90;3.60;;;24.20;99.90;;;;;;4893512;29;20092;-81
2023/07/06 08:24:36;;;;;;;6.00;3.00;;;24.30;99.90;;;;;;4886422;29;20048;-78
2023/07/06 08:30:14;;;;;;;5.25;3.10;;;24.30;99.90;;;;;;4880918;29;20051;-74
2023/07/06 08:32:51;;;;;;;6.10;3.22;;;24.30;99.90;;;;;;4873028;29;20053;-83
2023/07/06 08:35:19;;;;;;;7.20;3.80;;;24.50;99.90;;;;;;4883848;29;20089;-77
2023/07/06 08:37:48;;;;;;;5.55;3.15;;;24.50;99.90;;;;;;4870476;29;20044;-84
2023/07/06 08:40:28;;;;;;;7.50;3.30;;;24.60;99.90;;;;;;4868022;29;20063;-76
2023/07/06 08:42:56;;;;;;;6.40;3.13;;;24.90;99.90;;;;;;4881666;29;20068;-76
2023/07/06 08:45:39;;;;;;;10.13;3.13;;;24.80;99.90;;;;;;4868830;29;20064;-80
2023/07/06 08:48:19;;;;;;;10.43;3.60;;;24.90;99.90;;;;;;4865785;29;20056;-76
2023/07/06 08:51:15;;;;;;;10.02;3.35;;;24.90;99.90;;;;;;4881983;29;20053;-83
2023/07/06 08:54:10;;;;;;;6.70;3.60;;;25.00;99.90;;;;;;4888545;23;20397;-83
2023/07/06 08:56:49;;;;;;;9.85;4.00;;;25.00;99.90;;;;;;4864413;29;20052;-72
2023/07/06 08:59:39;;;;;;;7.47;3.28;;;25.00;99.90;;;;;;4879592;29;20045;-74
2023/07/06 09:02:15;;;;;;;;;;;25.00;99.90;;;;;;4878468;29;20040;-74
2023/07/06 09:05:14;;;;;;;8.82;3.75;;;25.10;99.90;;;;;;4862462;29;19923;-77
2023/07/06 09:07:57;;;;;;;8.85;3.28;;;25.30;99.90;;;;;;4872273;29;20060;-77
2023/07/06 09:10:29;;;;;;;5.90;3.38;;;25.40;99.90;;;;;;4865355;29;20505;-78
2023/07/06 09:13:23;;;;;;;9.35;3.25;;;25.40;99.90;;;;;;4863871;29;20041;-75
2023/07/06 09:16:00;;;;;;;9.10;3.95;;;25.60;99.90;;;;;;4876192;29;20045;-74
2023/07/06 09:18:42;;;;;;;9.85;3.80;;;25.70;99.90;;;;;;4868412;29;20068;-74
2023/07/06 09:21:10;;;;;;;7.45;3.40;;;25.90;99.90;;;;;;4887596;29;20120;-75
2023/07/06 09:23:44;;;;;;;13.32;4.70;;;25.90;99.90;;;;;;4882248;29;20060;-78
2023/07/06 09:26:34;;;;;;;9.23;3.85;;;25.90;99.90;;;;;;4886584;29;20048;-75
2023/07/06 09:29:11;;;;;;;5.78;3.22;;;26.10;99.90;;;;;;4863035;29;20116;-76
2023/07/06 09:31:39;;;;;;;11.75;3.80;;;26.20;99.90;;;;;;4883456;29;20041;-75
2023/07/06 09:34:35;;;;;;;7.43;3.33;;;26.40;99.90;;;;;;4866623;29;20045;-73
2023/07/06 09:37:06;;;;;;;8.20;3.50;;;26.50;99.90;;;;;;4862708;29;20104;-77
2023/07/06 09:39:35;;;;;;;7.38;3.55;;;26.50;99.90;;;;;;4847232;29;20049;-77
2023/07/06 09:42:04;;;;;;;7.47;3.40;;;26.60;99.90;;;;;;4880620;29;20052;-76
2023/07/06 09:44:33;;;;;;;7.45;3.20;;;26.60;99.90;;;;;;4864355;29;20521;-75
2023/07/06 09:47:11;;;;;;;12.85;3.92;;;26.70;99.90;;;;;;4870796;29;20045;-73
2023/07/06 09:50:00;;;;;;;9.70;4.97;;;26.80;99.90;;;;;;4878833;29;20045;-74
2023/07/06 09:52:35;;;;;;;10.25;4.35;;;26.90;99.90;;;;;;4844714;29;20413;-78
2023/07/06 09:55:29;;;;;;;8.23;3.20;;;27.00;99.90;;;;;;4862771;29;20101;-74
2023/07/06 09:58:01;;;;;;;9.55;4.30;;;27.00;99.70;;;;;;4850989;29;20084;-77
2023/07/06 10:00:44;;;;;;;9.07;3.75;;;27.00;99.90;;;;;;4864333;29;20098;-73
2023/07/06 10:04:00;;;;;;;6.25;3.22;;;27.00;99.90;;;;;;4853429;29;20045;-74
2023/07/06 10:06:53;;;;;;;10.13;3.58;;;26.90;99.60;;;;;;4872103;23;20105;-75
2023/07/06 10:10:02;;;;;;;12.10;4.32;;;26.90;99.70;;;;;;4863922;29;20045;-74
2023/07/06 10:13:03;;;;;;;12.43;3.85;;;27.00;99.50;;;;;;4865123;29;20121;-74
2023/07/06 10:15:51;;;;;;;8.00;4.18;;;27.20;99.50;;;;;;4861200;29;20033;-72
2023/07/06 10:18:30;;;;;;;7.32;3.42;;;27.30;99.60;;;;;;4876229;29;20037;-78
2023/07/06 10:21:04;;;;;;;10.02;3.72;;;27.40;99.20;;;;;;4879601;29;20079;-73
2023/07/06 10:24:01;;;;;;;6.93;3.70;;;27.40;99.20;;;;;;4875235;29;20053;-75
2023/07/06 10:26:34;;;;;;;11.65;3.63;;;27.40;98.50;;;;;;4866188;29;20124;-74
2023/07/06 10:29:09;;;;;;;7.15;3.40;;;27.70;98.00;;;;;;4860905;29;20066;-73
2023/07/06 10:31:51;;;;;;;9.60;3.35;;;27.90;96.80;;;;;;4875305;29;20136;-74
2023/07/06 10:34:23;;;;;;;6.75;3.05;;;28.10;97.30;;;;;;4864600;29;20034;-72
2023/07/06 10:36:51;;;;;;;6.40;3.40;;;28.10;96.80;;;;;;4862464;29;20053;-73
2023/07/06 10:39:26;;;;;;;10.15;3.40;;;28.00;95.40;;;;;;4847854;29;20049;-73
2023/07/06 10:42:02;;;;;;;6.72;3.40;;;28.30;96.30;;;;;;4862320;29;20053;-76
2023/07/06 10:44:46;;;;;;;6.45;3.45;;;28.30;95.70;;;;;;4850029;29;20102;-77
2023/07/06 10:47:41;;;;;;;8.48;3.10;;;28.40;95.70;;;;;;4855858;29;20409;-76
2023/07/06 10:50:25;;;;;;;11.45;3.30;;;28.50;94.90;;;;;;4864981;29;20049;-77
2023/07/06 10:53:33;;;;;;;8.15;3.42;;;28.60;94.90;;;;;;4841583;29;20118;-77
2023/07/06 10:56:00;;;;;;;7.07;2.97;;;28.60;94.60;;;;;;4854451;29;20064;-73
2023/07/06 10:58:44;;;;;;;11.55;3.83;;;28.80;93.50;;;;;;4861005;29;20111;-74
2023/07/06 11:01:17;;;;;;;6.43;2.95;;;28.80;94.40;;;;;;4856041;29;20129;-75
2023/07/06 11:03:51;;;;;;;7.32;3.35;;;28.70;93.70;;;;;;4839632;29;20073;-73
2023/07/06 11:06:43;;;;;;;6.80;3.40;;;28.60;93.90;;;;;;4855484;29;20550;-75
2023/07/06 11:09:16;;;;;;;6.22;3.10;;;28.80;93.40;;;;;;4869571;29;20057;-74
2023/07/06 11:12:01;;;;;;;9.27;3.35;;;29.00;93.30;;;;;;4842396;29;20114;-72
2023/07/06 11:14:33;;;;;;;7.63;3.58;;;29.00;93.40;;;;;;4855442;29;20057;-72
2023/07/06 11:17:36;;;;;;;8.32;3.90;;;29.40;93.20;;;;;;4860367;29;20414;-74
2023/07/06 11:20:15;;;;;;;7.72;3.45;;;29.60;93.00;;;;;;4854265;29;20045;-74
2023/07/06 11:22:50;;;;;;;6.97;3.53;;;29.40;91.90;;;;;;4849954;29;20069;-73
2023/07/06 11:25:19;;;;;;;6.00;3.10;;;29.30;92.10;;;;;;4860105;29;20041;-74
2023/07/06 11:27:49;;;;;;;5.03;3.10;;;29.40;91.90;;;;;;4833585;29;20106;-73
2023/07/06 11:30:24;;;;;;;6.13;3.38;;;29.50;92.30;;;;;;4869034;24;20199;-70
2023/07/06 11:33:18;;;;;;;19.70;4.47;;;29.80;91.90;;;;;;4879351;29;20487;-73
2023/07/06 11:35:55;;;;;;;9.30;3.85;;;29.60;92.60;;;;;;4881781;29;20041;-76
2023/07/06 11:38:42;;;;;;;5.95;3.33;;;29.10;92.20;;;;;;4848481;29;20137;-75
2023/07/06 11:41:17;;;;;;;9.00;3.30;;;28.90;92.60;;;;;;4861894;29;20049;-73
2023/07/06 11:44:09;;;;;;;7.93;3.72;;;29.00;90.90;;;;;;4865750;29;20490;-78
2023/07/06 11:47:07;;;;;;;5.97;3.38;;;29.20;91.50;;;;;;4845029;29;20085;-76
2023/07/06 11:50:19;;;;;;;6.18;3.15;;;29.50;90.80;;;;;;4865305;29;20545;-74
2023/07/06 11:52:58;;;;;;;10.02;3.63;;;29.60;90.80;;;;;;4790121;29;20062;-77
2023/07/06 11:55:31;;;;;;;8.93;3.38;;;29.90;91.40;;;;;;4791350;29;20569;-70
2023/07/06 11:58:08;;;;;;;6.63;3.38;;;29.50;91.00;;;;;;4854115;29;20072;-74
2023/07/06 12:00:50;;;;;;;7.40;3.42;;;29.20;91.20;;;;;;4849129;29;20049;-76
2023/07/06 12:03:25;;;;;;;10.82;3.70;;;29.10;91.60;;;;;;4859056;29;20045;-75
2023/07/06 12:05:58;;;;;;;6.85;3.33;;;29.00;91.60;;;;;;4848591;29;20038;-74
2023/07/06 12:08:41;;;;;;;11.82;3.75;;;29.10;92.20;;;;;;4835205;29;20146;-73
2023/07/06 12:11:19;;;;;;;5.68;3.15;;;29.60;91.70;;;;;;4852391;29;20060;-71
2023/07/06 12:13:56;;;;;;;9.70;3.50;;;30.00;90.10;;;;;;4843336;29;20044;-75
2023/07/06 12:16:39;;;;;;;6.43;3.58;;;30.30;90.10;;;;;;4862646;29;20065;-76
2023/07/06 12:19:58;;;;;;;7.03;3.67;;;30.50;90.20;;;;;;4858721;29;20048;-74
2023/07/06 12:22:26;;;;;;;8.05;3.72;;;29.70;90.70;;;;;;4856082;29;20060;-74
2023/07/06 12:24:55;;;;;;;6.80;3.10;;;29.50;91.00;;;;;;4849762;29;20137;-71
2023/07/06 12:27:27;;;;;;;6.80;3.60;;;29.10;90.30;;;;;;4847714;29;20144;-74
2023/07/06 12:30:07;;;;;;;12.02;3.67;;;29.40;90.70;;;;;;4844152;29;20057;-77
2023/07/06 12:32:37;;;;;;;6.28;3.03;;;29.90;89.30;;;;;;4856493;29;20494;-76
2023/07/06 12:35:04;;;;;;;7.45;3.25;;;30.00;87.00;;;;;;4844325;29;20055;-72
2023/07/06 12:37:32;;;;;;;6.57;3.65;;;29.90;87.60;;;;;;4860582;29;20448;-75
2023/07/06 12:40:00;;;;;;;10.25;4.40;;;30.00;89.10;;;;;;4861705;29;20045;-73
2023/07/06 12:42:29;;;;;;;9.20;3.70;;;30.40;88.40;;;;;;4849001;29;20053;-76
2023/07/06 12:45:14;;;;;;;7.93;4.15;;;30.40;87.40;;;;;;4879800;24;20057;-74
2023/07/06 12:47:58;;;;;;;8.23;3.90;;;30.50;85.40;;;;;;4887105;23;20065;-76
2023/07/06 12:50:35;;;;;;;7.88;3.60;;;30.10;85.60;;;;;;4859696;29;20077;-74
2023/07/06 12:53:21;;;;;;;5.93;3.40;;;29.90;86.90;;;;;;4874908;29;20049;-73
2023/07/06 12:55:49;;;;;;;7.78;3.85;;;30.50;86.40;;;;;;4868890;29;20060;-76
2023/07/06 12:58:34;;;;;;;7.18;3.58;;;30.80;86.60;;;;;;4832026;29;20498;-76
2023/07/06 13:01:17;;;;;;;11.00;3.22;;;31.00;84.40;;;;;;4857791;29;20110;-74
2023/07/06 13:03:58;;;;;;;6.20;3.30;;;31.40;85.10;;;;;;4858214;29;20080;-72
2023/07/06 13:06:26;;;;;;;;;;;31.40;83.40;;;;;;4861452;29;20054;-73
2023/07/06 13:08:59;;;;;;;9.27;3.47;;;31.60;83.60;;;;;;4862029;29;20356;-76
2023/07/06 13:11:27;;;;;;;6.85;3.70;;;31.50;83.40;;;;;;4842287;29;20136;-74
2023/07/06 13:14:02;;;;;;;6.32;3.80;;;31.70;81.40;;;;;;4859383;29;20073;-73
2023/07/06 13:16:44;;;;;;;6.15;3.30;;;31.40;82.80;;;;;;4845282;29;20050;-74
2023/07/06 13:19:15;;;;;;;7.22;3.40;;;31.20;83.20;;;;;;4830316;29;20052;-77
2023/07/06 13:21:43;;;;;;;5.90;3.22;;;31.40;83.40;;;;;;4860728;29;20137;-72
2023/07/06 13:24:19;;;;;;;7.05;3.92;;;31.20;83.10;;;;;;4859312;29;20045;-76
2023/07/06 13:26:50;;;;;;;11.25;4.78;;;31.20;82.90;;;;;;4860776;29;20053;-78
2023/07/06 13:29:35;;;;;;;10.70;4.28;;;31.00;82.60;;;;;;4863807;29;20037;-77
2023/07/06 13:32:17;;;;;;;6.55;3.72;;;31.30;82.30;;;;;;4846466;29;20082;-73
2023/07/06 13:34:49;;;;;;;6.18;3.33;;;31.90;81.00;;;;;;4861772;29;20144;-75
2023/07/06 13:37:31;;;;;;;6.57;3.45;;;32.70;81.00;;;;;;4847216;29;20088;-77
2023/07/06 13:40:01;;;;;;;6.13;3.45;;;32.40;80.10;;;;;;4876351;29;20056;-79